createdAt,value
2018-04-12T00:01:16.295Z,15.00
2018-04-12T00:03:43.729Z,15.00
2018-04-12T00:06:11.153Z,15.00
2018-04-12T00:08:39.357Z,15.00
2018-04-12T00:11:06.819Z,15.00
2018-04-12T00:13:34.397Z,15.10
2018-04-12T00:16:01.836Z,15.10
2018-04-12T00:18:30.032Z,15.10
2018-04-12T00:20:57.471Z,15.00
2018-04-12T00:23:24.913Z,15.00
2018-04-12T00:25:52.348Z,15.00
2018-04-12T00:28:20.549Z,15.00
2018-04-12T00:30:47.988Z,14.90
2018-04-12T00:33:15.428Z,14.90
2018-04-12T00:35:43.644Z,14.90
2018-04-12T00:38:11.086Z,14.90
2018-04-12T00:40:38.532Z,14.90
2018-04-12T00:43:05.979Z,14.90
2018-04-12T00:45:34.188Z,14.90
2018-04-12T00:48:01.614Z,14.80
2018-04-12T00:50:29.821Z,14.80
2018-04-12T00:52:57.270Z,14.80
2018-04-12T00:55:24.702Z,14.80
2018-04-12T00:57:52.905Z,14.90
2018-04-12T01:00:20.359Z,14.80
2018-04-12T01:02:48.037Z,14.90
2018-04-12T01:05:15.465Z,14.80
2018-04-12T01:07:42.896Z,14.90
2018-04-12T01:10:11.139Z,14.90
2018-04-12T01:12:38.567Z,14.90
2018-04-12T01:15:06.001Z,14.80
2018-04-12T01:17:33.425Z,14.90
2018-04-12T01:20:00.935Z,14.90
2018-04-12T01:22:28.409Z,14.90
2018-04-12T01:24:55.836Z,14.80
2018-04-12T01:27:23.269Z,14.80
2018-04-12T01:29:51.700Z,14.80
2018-04-12T01:32:19.126Z,14.80
2018-04-12T01:34:46.557Z,14.80
2018-04-12T01:37:14.977Z,14.80
2018-04-12T01:39:42.413Z,14.70
2018-04-12T01:42:09.840Z,14.80
2018-04-12T01:44:37.460Z,14.70
2018-04-12T01:47:04.923Z,14.60
2018-04-12T01:49:32.359Z,14.60
2018-04-12T01:51:59.957Z,14.60
2018-04-12T01:54:27.390Z,14.50
2018-04-12T01:56:55.090Z,14.50
2018-04-12T01:59:22.544Z,14.50
2018-04-12T02:01:50.545Z,14.50
2018-04-12T02:04:18.021Z,14.40
2018-04-12T02:06:45.436Z,14.40
2018-04-12T02:09:13.643Z,14.30
2018-04-12T02:11:41.068Z,14.20
2018-04-12T02:14:09.275Z,14.20
2018-04-12T02:16:36.717Z,14.20
2018-04-12T02:19:04.924Z,14.20
2018-04-12T02:21:32.376Z,14.10
2018-04-12T02:23:59.801Z,14.20
2018-04-12T02:26:28.008Z,14.00
2018-04-12T02:28:55.495Z,14.00
2018-04-12T02:31:22.880Z,14.00
2018-04-12T02:33:51.098Z,14.00
2018-04-12T02:36:18.544Z,13.90
2018-04-12T02:38:45.972Z,14.00
2018-04-12T02:41:14.187Z,13.80
2018-04-12T02:43:41.630Z,13.80
2018-04-12T02:46:09.057Z,13.80
2018-04-12T02:48:37.264Z,13.70
2018-04-12T02:51:04.701Z,13.60
2018-04-12T02:53:32.124Z,13.70
2018-04-12T02:55:59.565Z,13.60
2018-04-12T02:58:27.108Z,13.60
2018-04-12T03:00:54.536Z,13.60
2018-04-12T03:03:21.974Z,13.60
2018-04-12T03:05:50.169Z,13.60
2018-04-12T03:08:17.715Z,13.50
2018-04-12T03:10:45.912Z,13.50
2018-04-12T03:13:13.337Z,13.40
2018-04-12T03:15:41.547Z,13.50
2018-04-12T03:18:09.000Z,13.40
2018-04-12T03:20:36.422Z,13.50
2018-04-12T03:23:04.616Z,13.50
2018-04-12T03:25:32.060Z,13.50
2018-04-12T03:27:59.489Z,13.60
2018-04-12T03:30:26.927Z,13.50
2018-04-12T03:32:54.365Z,13.50
2018-04-12T03:35:21.797Z,13.50
2018-04-12T03:37:49.500Z,13.50
2018-04-12T03:40:16.931Z,13.50
2018-04-12T03:42:44.348Z,13.50
2018-04-12T03:45:12.557Z,13.40
2018-04-12T03:47:40.201Z,13.30
2018-04-12T03:50:07.637Z,13.40
2018-04-12T03:52:35.835Z,13.40
2018-04-12T03:55:03.528Z,13.40
2018-04-12T03:57:30.959Z,13.40
2018-04-12T03:59:58.389Z,13.40
2018-04-12T04:02:26.622Z,13.50
2018-04-12T04:04:54.364Z,13.50
2018-04-12T04:07:21.785Z,13.50
2018-04-12T04:09:49.196Z,13.50
2018-04-12T04:12:16.850Z,13.50
2018-04-12T04:18:02.288Z,13.50
2018-04-12T04:20:41.537Z,13.50
2018-04-12T04:23:08.976Z,13.50
2018-04-12T04:25:36.401Z,13.40
2018-04-12T04:28:03.830Z,13.40
2018-04-12T04:30:31.268Z,13.40
2018-04-12T04:32:58.705Z,13.40
2018-04-12T04:35:26.207Z,13.40
2018-04-12T04:37:53.636Z,13.40
2018-04-12T04:40:21.844Z,13.50
2018-04-12T04:42:49.304Z,13.40
2018-04-12T04:45:16.760Z,13.50
2018-04-12T04:47:44.209Z,13.50
2018-04-12T04:50:11.660Z,13.50
2018-04-12T04:52:39.080Z,13.40
2018-04-12T04:55:07.294Z,13.40
2018-04-12T04:57:34.718Z,13.30
2018-04-12T05:00:02.997Z,13.40
2018-04-12T05:02:31.209Z,13.30
2018-04-12T05:04:58.641Z,13.20
2018-04-12T05:07:26.076Z,13.20
2018-04-12T05:09:54.270Z,13.20
2018-04-12T05:12:21.864Z,13.10
2018-04-12T05:14:49.295Z,13.20
2018-04-12T05:17:16.720Z,13.20
2018-04-12T05:19:44.932Z,13.20
2018-04-12T05:22:12.380Z,13.10
2018-04-12T05:24:39.815Z,13.20
2018-04-12T05:27:08.021Z,13.30
2018-04-12T05:29:35.462Z,13.30
2018-04-12T05:32:02.900Z,13.40
2018-04-12T05:34:31.115Z,13.50
2018-04-12T05:36:58.577Z,13.50
2018-04-12T05:39:26.034Z,13.50
2018-04-12T05:41:53.453Z,13.50
2018-04-12T05:44:20.891Z,13.60
2018-04-12T05:46:50.092Z,13.70
2018-04-12T05:49:18.408Z,13.80
2018-04-12T05:51:45.822Z,13.70
2018-04-12T05:54:13.267Z,13.90
2018-04-12T05:56:40.756Z,14.00
2018-04-12T05:59:08.457Z,14.00
2018-04-12T06:01:35.885Z,14.10
2018-04-12T06:04:03.313Z,14.20
2018-04-12T06:06:31.528Z,14.30
2018-04-12T06:08:59.001Z,14.30
2018-04-12T06:11:26.460Z,14.40
2018-04-12T06:13:53.920Z,14.40
2018-04-12T06:16:21.389Z,14.50
2018-04-12T06:18:48.817Z,14.50
2018-04-12T06:21:16.285Z,14.60
2018-04-12T06:23:43.714Z,14.70
2018-04-12T06:26:11.178Z,14.70
2018-04-12T06:28:38.609Z,14.80
2018-04-12T06:31:06.831Z,14.90
2018-04-12T06:33:34.280Z,14.80
2018-04-12T06:36:01.729Z,15.00
2018-04-12T06:38:29.194Z,15.10
2018-04-12T06:40:56.664Z,15.20
2018-04-12T06:43:24.102Z,15.20
2018-04-12T06:45:51.540Z,15.30
2018-04-12T06:48:18.984Z,15.40
2018-04-12T06:50:47.181Z,15.60
2018-04-12T06:53:14.636Z,15.50
2018-04-12T06:55:42.057Z,15.60
2018-04-12T06:58:10.269Z,15.80
2018-04-12T07:00:37.847Z,15.70
2018-04-12T07:03:05.285Z,15.90
2018-04-12T07:05:32.713Z,16.00
2018-04-12T07:08:00.916Z,16.20
2018-04-12T07:10:28.356Z,16.20
2018-04-12T07:12:55.830Z,16.40
2018-04-12T07:15:23.242Z,16.50
2018-04-12T07:17:51.462Z,17.00
2018-04-12T07:20:18.936Z,16.90
2018-04-12T07:22:46.373Z,17.20
2018-04-12T07:25:13.821Z,17.40
2018-04-12T07:27:41.246Z,17.70
2018-04-12T07:30:09.456Z,18.30
2018-04-12T07:32:37.688Z,18.20
2018-04-12T07:35:05.254Z,18.60
2018-04-12T07:37:32.704Z,18.70
2018-04-12T07:40:00.142Z,18.90
2018-04-12T07:42:27.580Z,19.10
2018-04-12T07:44:55.010Z,19.30
2018-04-12T07:47:22.460Z,19.30
2018-04-12T07:49:49.884Z,19.30
2018-04-12T07:52:17.448Z,19.20
2018-04-12T07:54:44.846Z,19.10
2018-04-12T07:57:12.293Z,19.00
2018-04-12T07:59:39.721Z,19.10
2018-04-12T08:02:08.082Z,19.50
2018-04-12T08:04:35.481Z,19.40
2018-04-12T08:07:02.913Z,19.80
2018-04-12T08:09:31.122Z,20.30
2018-04-12T08:11:58.578Z,20.30
2018-04-12T08:14:26.024Z,20.60
2018-04-12T08:16:54.212Z,21.00
2018-04-12T08:19:21.680Z,20.90
2018-04-12T08:21:49.121Z,21.30
2018-04-12T08:24:16.555Z,21.60
2018-04-12T08:26:44.757Z,22.20
2018-04-12T08:29:12.433Z,22.10
2018-04-12T08:31:39.872Z,22.40
2018-04-12T08:34:07.287Z,22.70
2018-04-12T08:36:35.489Z,22.90
2018-04-12T08:39:02.943Z,22.80
2018-04-12T08:41:31.127Z,23.30
2018-04-12T08:43:58.592Z,23.20
2018-04-12T08:46:26.021Z,23.40
2018-04-12T08:48:54.229Z,23.20
2018-04-12T08:51:21.666Z,23.20
2018-04-12T08:53:49.096Z,23.10
2018-04-12T09:07:42.404Z,22.10
2018-04-12T09:10:09.853Z,22.00
2018-04-12T09:12:37.301Z,21.70
2018-04-12T09:15:04.732Z,21.50
2018-04-12T09:17:32.160Z,21.30
2018-04-12T09:20:00.388Z,21.70
2018-04-12T09:22:27.819Z,21.60
2018-04-12T09:24:55.245Z,22.00
2018-04-12T09:27:23.458Z,22.80
2018-04-12T09:29:50.914Z,22.80
2018-04-12T09:32:18.343Z,23.10
2018-04-12T09:34:46.544Z,23.40
2018-04-12T09:37:13.988Z,23.30
2018-04-12T09:39:41.441Z,23.50
2018-04-12T09:42:08.878Z,23.50
2018-04-12T09:44:37.089Z,23.40
2018-04-12T09:47:04.529Z,23.40
2018-04-12T09:49:32.023Z,23.70
2018-04-12T09:52:00.169Z,24.10
2018-04-12T09:54:27.620Z,24.00
2018-04-12T09:56:55.065Z,24.50
2018-04-12T09:59:22.496Z,24.80
2018-04-12T10:01:54.572Z,24.50
2018-04-12T10:04:26.618Z,24.20
2018-04-12T10:06:54.041Z,24.20
2018-04-12T10:09:21.483Z,23.80
2018-04-12T10:11:48.907Z,23.40
2018-04-12T10:14:17.114Z,23.00
2018-04-12T10:16:44.540Z,23.00
2018-04-12T10:19:12.755Z,23.20
2018-04-12T10:21:40.224Z,23.10
2018-04-12T10:24:07.755Z,23.30
2018-04-12T10:26:35.186Z,23.30
2018-04-12T10:29:03.377Z,23.50
2018-04-12T10:31:30.812Z,23.50
2018-04-12T10:33:59.009Z,24.10
2018-04-12T10:36:26.449Z,24.00
2018-04-12T10:38:54.646Z,23.60
2018-04-12T10:41:22.080Z,23.60
2018-04-12T10:43:50.272Z,23.60
2018-04-12T10:46:17.721Z,23.50
2018-04-12T10:48:45.145Z,23.60
2018-04-12T10:51:12.596Z,23.60
2018-04-12T10:53:40.033Z,23.40
2018-04-12T10:56:07.476Z,23.40
2018-04-12T10:58:34.902Z,23.50
2018-04-12T11:01:02.377Z,23.80
2018-04-12T11:03:29.842Z,24.60
2018-04-12T11:05:58.014Z,26.40
2018-04-12T11:08:25.440Z,26.40
2018-04-12T11:10:52.894Z,26.70
2018-04-12T11:13:21.092Z,26.10
2018-04-12T11:15:48.532Z,26.00
2018-04-12T11:18:15.962Z,26.30
2018-04-12T11:20:43.453Z,26.40
2018-04-12T11:23:10.882Z,26.10
2018-04-12T11:25:39.105Z,24.80
2018-04-12T11:28:06.546Z,24.80
2018-04-12T11:30:33.973Z,24.30
2018-04-12T11:33:02.213Z,23.80
2018-04-12T11:35:29.645Z,23.70
2018-04-12T11:37:57.074Z,23.60
2018-04-12T11:40:24.535Z,23.30
2018-04-12T11:42:52.740Z,23.10
2018-04-12T11:45:20.153Z,23.00
2018-04-12T11:47:48.356Z,22.70
2018-04-12T11:50:15.794Z,22.70
2018-04-12T11:52:43.229Z,22.60
2018-04-12T11:55:11.441Z,22.70
2018-04-12T11:57:38.876Z,22.70
2018-04-12T12:00:06.308Z,22.80
2018-04-12T12:02:33.954Z,22.90
2018-04-12T12:05:01.393Z,23.10
2018-04-12T12:07:28.857Z,23.30
2018-04-12T12:09:56.309Z,23.50
2018-04-12T12:12:23.848Z,23.70
2018-04-12T12:14:51.264Z,23.80
2018-04-12T12:17:19.499Z,23.80
2018-04-12T12:19:46.930Z,23.80
2018-04-12T12:22:14.377Z,23.70
2018-04-12T12:24:41.828Z,23.60
2018-04-12T12:27:09.269Z,23.60
2018-04-12T12:29:37.464Z,23.30
2018-04-12T12:32:04.935Z,23.30
2018-04-12T12:34:32.353Z,23.30
2018-04-12T12:37:00.584Z,23.40
2018-04-12T12:39:28.009Z,23.30
2018-04-12T12:41:55.465Z,23.50
2018-04-12T12:44:22.904Z,23.70
2018-04-12T12:46:51.123Z,24.00
2018-04-12T12:49:18.549Z,23.90
2018-04-12T12:51:46.144Z,24.10
2018-04-12T12:54:13.581Z,24.20
2018-04-12T12:56:41.017Z,24.30
2018-04-12T12:59:08.456Z,24.30
2018-04-12T13:01:36.716Z,24.30
2018-04-12T13:04:04.227Z,24.30
2018-04-12T13:06:31.656Z,24.20
2018-04-12T13:08:59.865Z,24.00
2018-04-12T13:11:27.300Z,24.00
2018-04-12T13:13:54.744Z,23.80
2018-04-12T13:16:22.248Z,23.90
2018-04-12T13:18:49.684Z,24.00
2018-04-12T13:21:17.123Z,24.00
2018-04-12T13:23:44.558Z,23.80
2018-04-12T13:26:12.769Z,23.50
2018-04-12T13:28:40.197Z,23.50
2018-04-12T13:31:08.409Z,23.30
2018-04-12T13:33:35.833Z,23.20
2018-04-12T13:36:03.277Z,23.10
2018-04-12T13:38:31.482Z,22.80
2018-04-12T13:40:58.925Z,22.80
2018-04-12T13:43:26.360Z,22.80
2018-04-12T13:45:54.560Z,22.60
2018-04-12T13:48:22.009Z,22.60
2018-04-12T13:50:49.441Z,22.50
2018-04-12T13:53:16.885Z,22.50
2018-04-12T13:55:44.350Z,22.40
2018-04-12T13:58:11.777Z,22.30
2018-04-12T14:00:39.232Z,22.30
2018-04-12T14:03:06.656Z,22.30
2018-04-12T14:05:34.104Z,22.40
2018-04-12T14:08:01.532Z,22.40
2018-04-12T14:10:29.003Z,22.50
2018-04-12T14:12:57.200Z,22.70
2018-04-12T14:15:24.632Z,22.60
2018-04-12T14:17:52.857Z,22.80
2018-04-12T14:20:20.289Z,22.70
2018-04-12T14:22:47.745Z,22.80
2018-04-12T14:25:15.188Z,22.60
2018-04-12T14:27:43.374Z,22.30
2018-04-12T14:30:10.826Z,22.30
2018-04-12T14:32:38.258Z,22.20
2018-04-12T14:35:06.457Z,22.00
2018-04-12T14:37:33.893Z,21.90
2018-04-12T14:40:02.349Z,21.80
2018-04-12T14:42:29.777Z,21.70
2018-04-12T14:44:57.222Z,21.70
2018-04-12T14:47:24.691Z,21.60
2018-04-12T14:49:52.130Z,21.60
2018-04-12T14:52:19.716Z,21.60
2018-04-12T14:54:47.152Z,21.60
2018-04-12T14:57:14.580Z,21.50
2018-04-12T14:59:42.796Z,21.50
2018-04-12T15:02:10.236Z,21.40
2018-04-12T15:04:37.664Z,21.50
2018-04-12T15:07:05.889Z,21.40
2018-04-12T15:09:33.333Z,21.30
2018-04-12T15:12:00.884Z,21.30
2018-04-12T15:14:28.314Z,21.30
2018-04-12T15:16:56.530Z,21.30
2018-04-12T15:19:24.288Z,21.20
2018-04-12T15:21:51.732Z,21.20
2018-04-12T15:24:19.148Z,21.30
2018-04-12T15:26:47.691Z,21.30
2018-04-12T15:29:15.117Z,21.30
2018-04-12T15:31:42.548Z,21.30
2018-04-12T15:34:10.783Z,21.30
2018-04-12T15:36:38.213Z,21.20
2018-04-12T15:39:06.553Z,21.30
2018-04-12T15:41:34.757Z,21.30
2018-04-12T15:44:02.193Z,21.20
2018-04-12T15:46:30.389Z,21.20
2018-04-12T15:48:57.850Z,21.10
2018-04-12T15:51:25.288Z,21.20
2018-04-12T15:53:53.494Z,21.10
2018-04-12T15:56:20.956Z,21.00
2018-04-12T15:58:48.405Z,21.00
2018-04-12T16:01:15.839Z,21.00
2018-04-12T16:03:43.277Z,21.00
2018-04-12T16:06:11.514Z,20.80
2018-04-12T16:08:38.964Z,20.80
2018-04-12T16:11:06.400Z,20.80
2018-04-12T16:13:33.850Z,20.70
2018-04-12T16:16:01.293Z,20.70
2018-04-12T16:18:29.526Z,20.50
2018-04-12T16:20:56.989Z,20.50
2018-04-12T16:23:24.429Z,20.50
2018-04-12T16:25:53.393Z,20.40
2018-04-12T16:28:20.871Z,20.30
2018-04-12T16:30:48.318Z,20.30
2018-04-12T16:33:15.763Z,20.20
2018-04-12T16:35:43.208Z,20.10
2018-04-12T16:38:10.857Z,20.00
2018-04-12T16:40:39.036Z,19.90
2018-04-12T16:43:06.469Z,19.90
2018-04-12T16:45:34.688Z,19.80
2018-04-12T16:48:02.142Z,19.80
2018-04-12T16:50:29.558Z,19.80
2018-04-12T16:52:57.766Z,19.70
2018-04-12T16:55:25.197Z,19.60
2018-04-12T16:57:53.412Z,19.60
2018-04-12T17:00:20.840Z,19.50
2018-04-12T17:02:48.287Z,19.50
2018-04-12T17:05:16.489Z,19.40
2018-04-12T17:07:43.919Z,19.40
2018-04-12T17:10:12.130Z,19.30
2018-04-12T17:12:39.561Z,19.20
2018-04-12T17:15:07.023Z,19.30
2018-04-12T17:17:34.452Z,19.20
2018-04-12T17:20:02.648Z,19.10
2018-04-12T17:22:30.104Z,19.10
2018-04-12T17:24:57.528Z,19.10
2018-04-12T17:27:24.964Z,19.10
2018-04-12T17:29:52.401Z,19.10
2018-04-12T17:32:19.846Z,19.10
2018-04-12T17:34:47.293Z,19.00
2018-04-12T17:37:14.980Z,19.00
2018-04-12T17:39:42.408Z,19.00
2018-04-12T17:42:09.842Z,19.00
2018-04-12T17:44:38.050Z,19.00
2018-04-12T17:47:05.528Z,18.90
2018-04-12T17:49:32.961Z,18.90
2018-04-12T17:52:00.421Z,18.90
2018-04-12T17:54:27.874Z,18.90
2018-04-12T17:56:56.047Z,18.90
2018-04-12T17:59:23.476Z,18.80
2018-04-12T18:01:51.906Z,18.90
2018-04-12T18:04:19.353Z,18.90
2018-04-12T18:06:46.884Z,18.90
2018-04-12T18:09:15.077Z,18.90
2018-04-12T18:11:42.509Z,18.80
2018-04-12T18:14:11.257Z,18.70
2018-04-12T18:16:38.678Z,18.70
2018-04-12T18:19:06.160Z,18.70
2018-04-12T18:21:33.667Z,18.60
2018-04-12T18:24:01.858Z,18.50
2018-04-12T18:26:29.304Z,18.50
2018-04-12T18:28:56.760Z,18.50
2018-04-12T18:31:24.272Z,18.50
2018-04-12T18:33:51.707Z,18.40
2018-04-12T18:36:19.132Z,18.40
2018-04-12T18:38:46.682Z,18.40
2018-04-12T18:41:14.920Z,18.30
2018-04-12T18:43:42.323Z,18.30
2018-04-12T18:46:10.543Z,18.30
2018-04-12T18:48:38.015Z,18.20
2018-04-12T18:51:05.448Z,18.30
2018-04-12T18:53:32.886Z,18.20
2018-04-12T18:56:00.378Z,18.30
2018-04-12T18:58:27.848Z,18.20
2018-04-12T19:00:55.356Z,18.30
2018-04-12T19:03:22.770Z,18.30
2018-04-12T19:05:50.982Z,18.20
2018-04-12T19:08:18.424Z,18.20
2018-04-12T19:10:45.876Z,18.20
2018-04-12T19:13:14.318Z,18.10
2018-04-12T19:15:41.741Z,18.10
2018-04-12T19:18:09.172Z,18.00
2018-04-12T19:20:37.447Z,17.90
2018-04-12T19:23:04.861Z,17.80
2018-04-12T19:25:32.335Z,17.80
2018-04-12T19:27:59.769Z,17.70
2018-04-12T19:30:27.192Z,17.60
2018-04-12T19:32:54.976Z,17.60
2018-04-12T19:35:22.414Z,17.60
2018-04-12T19:37:49.833Z,17.60
2018-04-12T19:40:18.048Z,17.50
2018-04-12T19:42:45.485Z,17.50
2018-04-12T19:45:12.918Z,17.40
2018-04-12T19:47:41.145Z,17.40
2018-04-12T19:50:08.600Z,17.40
2018-04-12T19:52:36.036Z,17.30
2018-04-12T19:55:03.565Z,17.40
2018-04-12T19:57:31.804Z,17.30
2018-04-12T19:59:59.247Z,17.30
2018-04-12T20:02:26.716Z,17.30
2018-04-12T20:04:54.147Z,17.20
2018-04-12T20:07:21.580Z,17.20
2018-04-12T20:09:49.015Z,17.20
2018-04-12T20:12:16.457Z,17.10
2018-04-12T20:14:44.010Z,17.10
2018-04-12T20:17:13.284Z,17.00
2018-04-12T20:19:40.952Z,17.00
2018-04-12T20:22:08.380Z,17.00
2018-04-12T20:24:35.852Z,16.90
2018-04-12T20:27:03.293Z,16.90
2018-04-12T20:29:30.732Z,16.90
2018-04-12T20:31:58.949Z,16.80
2018-04-12T20:34:26.520Z,16.80
2018-04-12T20:36:53.951Z,16.80
2018-04-12T20:39:21.487Z,16.80
2018-04-12T20:41:48.933Z,16.80
2018-04-12T20:44:17.129Z,16.70
2018-04-12T20:46:44.576Z,16.60
2018-04-12T20:49:12.013Z,16.70
2018-04-12T20:51:40.212Z,16.60
2018-04-12T20:54:07.656Z,16.60
2018-04-12T20:56:35.872Z,16.70
2018-04-12T20:59:03.320Z,16.60
2018-04-12T21:01:31.091Z,16.70
2018-04-12T21:03:58.534Z,16.60
2018-04-12T21:06:25.953Z,16.60
2018-04-12T21:08:53.587Z,16.50
2018-04-12T21:11:21.033Z,16.50
2018-04-12T21:13:48.517Z,16.50
2018-04-12T21:16:15.961Z,16.50
2018-04-12T21:18:43.400Z,16.40
2018-04-12T21:21:10.854Z,16.40
2018-04-12T21:23:38.325Z,16.30
2018-04-12T21:26:05.860Z,16.40
2018-04-12T21:28:33.292Z,16.30
2018-04-12T21:31:00.733Z,16.30
2018-04-12T21:33:28.939Z,16.30
2018-04-12T21:35:56.381Z,16.20
2018-04-12T21:38:23.813Z,16.30
2018-04-12T21:40:52.152Z,16.30
2018-04-12T21:43:19.589Z,16.20
2018-04-12T21:45:47.013Z,16.30
2018-04-12T21:48:15.545Z,16.30
2018-04-12T21:50:42.968Z,16.20
2018-04-12T21:53:10.396Z,16.20
2018-04-12T21:55:38.615Z,16.30
2018-04-12T21:58:06.048Z,16.20
2018-04-12T22:00:33.488Z,16.20
2018-04-12T22:03:01.696Z,16.20
2018-04-12T22:05:29.140Z,16.20
2018-04-12T22:07:56.576Z,16.20
2018-04-12T22:10:24.782Z,16.20
2018-04-12T22:12:52.237Z,16.20
2018-04-12T22:15:19.694Z,16.20
2018-04-12T22:17:47.156Z,16.20
2018-04-12T22:20:14.629Z,16.20
2018-04-12T22:22:42.066Z,16.20
2018-04-12T22:25:09.522Z,16.10
2018-04-12T22:27:36.948Z,16.10
2018-04-12T22:30:05.188Z,16.10
2018-04-12T22:32:32.634Z,16.00
2018-04-12T22:35:00.065Z,16.10
2018-04-12T22:37:27.483Z,16.00
2018-04-12T22:39:55.697Z,16.00
2018-04-12T22:42:23.127Z,15.90
2018-04-12T22:44:51.331Z,15.90
2018-04-12T22:47:18.775Z,15.80
2018-04-12T22:49:46.218Z,15.80
2018-04-12T22:52:14.027Z,15.80
2018-04-12T22:54:41.462Z,15.80
2018-04-12T22:57:08.890Z,15.80
2018-04-12T22:59:37.092Z,15.80
2018-04-12T23:02:04.520Z,15.80
2018-04-12T23:04:32.738Z,15.80
2018-04-12T23:07:00.165Z,15.80
2018-04-12T23:09:27.637Z,15.80
2018-04-12T23:11:55.073Z,15.80
2018-04-12T23:14:22.506Z,15.80
2018-04-12T23:16:49.991Z,15.80
2018-04-12T23:19:17.464Z,15.70
2018-04-12T23:21:44.919Z,15.70
2018-04-12T23:24:12.378Z,15.60
2018-04-12T23:26:39.790Z,15.50
2018-04-12T23:29:07.230Z,15.50
2018-04-12T23:31:34.657Z,15.40
2018-04-12T23:34:02.110Z,15.30
2018-04-12T23:36:29.533Z,15.30
2018-04-12T23:38:56.984Z,15.30
2018-04-12T23:41:25.195Z,15.30
2018-04-12T23:43:52.614Z,15.20
2018-04-12T23:46:20.820Z,15.10
2018-04-12T23:48:48.275Z,15.10
2018-04-12T23:51:15.941Z,15.20
2018-04-12T23:53:43.375Z,15.10
2018-04-12T23:56:10.865Z,15.00
2018-04-12T23:58:38.323Z,14.90
